sensor_id;sensor_type;location;lat;lon;timestamp;pressure;altitude;pressure_sealevel;temperature
23208;BMP180;11773;52.570;13.052;2022-09-04T00:00:11;101628.00;;;22.60
23208;BMP180;11773;52.570;13.052;2022-09-04T00:03:24;101632.00;;;22.50
23208;BMP180;11773;52.570;13.052;2022-09-04T00:05:57;101641.00;;;22.40
23208;BMP180;11773;52.570;13.052;2022-09-04T00:08:56;101636.00;;;22.40
23208;BMP180;11773;52.570;13.052;2022-09-04T00:11:39;101635.00;;;22.30
23208;BMP180;11773;52.570;13.052;2022-09-04T00:14:24;101636.00;;;22.30
23208;BMP180;11773;52.570;13.052;2022-09-04T00:17:08;101636.00;;;22.30
23208;BMP180;11773;52.570;13.052;2022-09-04T00:20:00;101638.00;;;22.30
23208;BMP180;11773;52.570;13.052;2022-09-04T00:22:33;101660.00;;;22.30
23208;BMP180;11773;52.570;13.052;2022-09-04T00:25:20;101645.00;;;22.30
23208;BMP180;11773;52.570;13.052;2022-09-04T00:27:53;101640.00;;;22.30
23208;BMP180;11773;52.570;13.052;2022-09-04T00:30:22;101641.00;;;22.30
23208;BMP180;11773;52.570;13.052;2022-09-04T00:33:13;101645.00;;;22.30
23208;BMP180;11773;52.570;13.052;2022-09-04T00:35:49;101649.00;;;22.30
23208;BMP180;11773;52.570;13.052;2022-09-04T00:41:32;101649.00;;;22.20
23208;BMP180;11773;52.570;13.052;2022-09-04T00:47:39;101645.00;;;22.10
23208;BMP180;11773;52.570;13.052;2022-09-04T00:50:31;101647.00;;;22.10
23208;BMP180;11773;52.570;13.052;2022-09-04T00:56:18;101663.00;;;22.00
23208;BMP180;11773;52.570;13.052;2022-09-04T00:59:33;101668.00;;;22.00
23208;BMP180;11773;52.570;13.052;2022-09-04T01:02:11;101660.00;;;22.00
23208;BMP180;11773;52.570;13.052;2022-09-04T01:07:53;101686.00;;;21.90
23208;BMP180;11773;52.570;13.052;2022-09-04T01:16:45;101671.00;;;21.90
23208;BMP180;11773;52.570;13.052;2022-09-04T01:19:57;101684.00;;;21.80
23208;BMP180;11773;52.570;13.052;2022-09-04T01:29:14;101685.00;;;21.70
23208;BMP180;11773;52.570;13.052;2022-09-04T01:32:00;101670.00;;;21.60
23208;BMP180;11773;52.570;13.052;2022-09-04T01:35:01;101669.00;;;21.60
23208;BMP180;11773;52.570;13.052;2022-09-04T01:37:42;101681.00;;;21.60
23208;BMP180;11773;52.570;13.052;2022-09-04T01:40:40;101690.00;;;21.60
23208;BMP180;11773;52.570;13.052;2022-09-04T01:43:15;101683.00;;;21.60
23208;BMP180;11773;52.570;13.052;2022-09-04T01:48:49;101675.00;;;21.60
23208;BMP180;11773;52.570;13.052;2022-09-04T01:54:02;101676.00;;;21.60
23208;BMP180;11773;52.570;13.052;2022-09-04T01:57:17;101670.00;;;21.60
23208;BMP180;11773;52.570;13.052;2022-09-04T01:59:24;101673.00;;;21.60
23208;BMP180;11773;52.570;13.052;2022-09-04T02:02:00;101674.00;;;21.60
23208;BMP180;11773;52.570;13.052;2022-09-04T02:04:40;101678.00;;;21.60
23208;BMP180;11773;52.570;13.052;2022-09-04T02:07:33;101685.00;;;21.60
23208;BMP180;11773;52.570;13.052;2022-09-04T02:10:16;101697.00;;;21.60
23208;BMP180;11773;52.570;13.052;2022-09-04T02:15:41;101685.00;;;21.50
23208;BMP180;11773;52.570;13.052;2022-09-04T02:21:35;101690.00;;;21.50
23208;BMP180;11773;52.570;13.052;2022-09-04T02:24:39;101682.00;;;21.50
23208;BMP180;11773;52.570;13.052;2022-09-04T02:27:12;101680.00;;;21.50
23208;BMP180;11773;52.570;13.052;2022-09-04T02:38:15;101683.00;;;21.50
23208;BMP180;11773;52.570;13.052;2022-09-04T02:41:11;101696.00;;;21.50
23208;BMP180;11773;52.570;13.052;2022-09-04T02:49:33;101680.00;;;21.40
23208;BMP180;11773;52.570;13.052;2022-09-04T02:52:31;101682.00;;;21.40
23208;BMP180;11773;52.570;13.052;2022-09-04T02:58:06;101681.00;;;21.30
23208;BMP180;11773;52.570;13.052;2022-09-04T03:01:11;101682.00;;;21.30
23208;BMP180;11773;52.570;13.052;2022-09-04T03:03:47;101683.00;;;21.20
23208;BMP180;11773;52.570;13.052;2022-09-04T03:06:43;101697.00;;;21.20
23208;BMP180;11773;52.570;13.052;2022-09-04T03:09:36;101695.00;;;21.20
23208;BMP180;11773;52.570;13.052;2022-09-04T03:18:05;101686.00;;;21.10
23208;BMP180;11773;52.570;13.052;2022-09-04T03:20:45;101688.00;;;21.10
23208;BMP180;11773;52.570;13.052;2022-09-04T03:23:52;101686.00;;;21.10
23208;BMP180;11773;52.570;13.052;2022-09-04T03:26:39;101698.00;;;21.00
23208;BMP180;11773;52.570;13.052;2022-09-04T03:29:29;101690.00;;;21.00
23208;BMP180;11773;52.570;13.052;2022-09-04T03:32:23;101692.00;;;21.00
23208;BMP180;11773;52.570;13.052;2022-09-04T03:37:52;101701.00;;;21.00
23208;BMP180;11773;52.570;13.052;2022-09-04T03:40:38;101696.00;;;20.90
23208;BMP180;11773;52.570;13.052;2022-09-04T03:43:28;101702.00;;;20.90
23208;BMP180;11773;52.570;13.052;2022-09-04T03:46:21;101706.00;;;20.90
23208;BMP180;11773;52.570;13.052;2022-09-04T03:49:21;101694.00;;;20.80
23208;BMP180;11773;52.570;13.052;2022-09-04T03:52:06;101689.00;;;20.70
23208;BMP180;11773;52.570;13.052;2022-09-04T04:00:21;101698.00;;;20.70
23208;BMP180;11773;52.570;13.052;2022-09-04T04:05:52;101712.00;;;20.70
23208;BMP180;11773;52.570;13.052;2022-09-04T04:09:48;101702.00;;;20.70
23208;BMP180;11773;52.570;13.052;2022-09-04T04:11:49;101717.00;;;20.60
23208;BMP180;11773;52.570;13.052;2022-09-04T04:17:59;101713.00;;;20.50
23208;BMP180;11773;52.570;13.052;2022-09-04T04:20:52;101714.00;;;20.50
23208;BMP180;11773;52.570;13.052;2022-09-04T04:23:32;101730.00;;;20.50
23208;BMP180;11773;52.570;13.052;2022-09-04T04:26:09;101705.00;;;20.50
23208;BMP180;11773;52.570;13.052;2022-09-04T04:29:18;101713.00;;;20.50
23208;BMP180;11773;52.570;13.052;2022-09-04T04:32:42;101716.00;;;20.40
23208;BMP180;11773;52.570;13.052;2022-09-04T04:38:04;101707.00;;;20.40
23208;BMP180;11773;52.570;13.052;2022-09-04T04:40:59;101707.00;;;20.30
23208;BMP180;11773;52.570;13.052;2022-09-04T04:44:11;101708.00;;;20.30
23208;BMP180;11773;52.570;13.052;2022-09-04T04:49:53;101724.00;;;20.20
23208;BMP180;11773;52.570;13.052;2022-09-04T04:52:47;101718.00;;;20.20
23208;BMP180;11773;52.570;13.052;2022-09-04T04:55:43;101731.00;;;20.20
23208;BMP180;11773;52.570;13.052;2022-09-04T05:04:19;101760.00;;;20.10
23208;BMP180;11773;52.570;13.052;2022-09-04T05:07:05;101772.00;;;20.10
23208;BMP180;11773;52.570;13.052;2022-09-04T05:09:57;101760.00;;;20.10
23208;BMP180;11773;52.570;13.052;2022-09-04T05:15:41;101779.00;;;20.20
23208;BMP180;11773;52.570;13.052;2022-09-04T05:21:31;101771.00;;;20.20
23208;BMP180;11773;52.570;13.052;2022-09-04T05:24:31;101770.00;;;20.20
23208;BMP180;11773;52.570;13.052;2022-09-04T05:27:10;101782.00;;;20.20
23208;BMP180;11773;52.570;13.052;2022-09-04T05:30:02;101796.00;;;20.20
23208;BMP180;11773;52.570;13.052;2022-09-04T05:32:36;101789.00;;;20.20
23208;BMP180;11773;52.570;13.052;2022-09-04T05:38:17;101807.00;;;20.20
23208;BMP180;11773;52.570;13.052;2022-09-04T05:41:05;101808.00;;;20.20
23208;BMP180;11773;52.570;13.052;2022-09-04T05:44:14;101816.00;;;20.30
23208;BMP180;11773;52.570;13.052;2022-09-04T05:47:04;101825.00;;;20.30
23208;BMP180;11773;52.570;13.052;2022-09-04T05:52:59;101827.00;;;20.30
23208;BMP180;11773;52.570;13.052;2022-09-04T05:58:45;101830.00;;;20.30
23208;BMP180;11773;52.570;13.052;2022-09-04T06:04:52;101844.00;;;20.30
23208;BMP180;11773;52.570;13.052;2022-09-04T06:07:41;101832.00;;;20.30
23208;BMP180;11773;52.570;13.052;2022-09-04T06:10:24;101829.00;;;20.30
23208;BMP180;11773;52.570;13.052;2022-09-04T06:13:27;101843.00;;;20.30
23208;BMP180;11773;52.570;13.052;2022-09-04T06:16:41;101844.00;;;20.40
23208;BMP180;11773;52.570;13.052;2022-09-04T06:22:09;101838.00;;;20.40
23208;BMP180;11773;52.570;13.052;2022-09-04T06:27:39;101849.00;;;20.70
23208;BMP180;11773;52.570;13.052;2022-09-04T06:30:12;101841.00;;;20.90
23208;BMP180;11773;52.570;13.052;2022-09-04T06:33:20;101845.00;;;21.10
23208;BMP180;11773;52.570;13.052;2022-09-04T06:36:04;101846.00;;;21.30
23208;BMP180;11773;52.570;13.052;2022-09-04T06:41:53;101859.00;;;21.80
23208;BMP180;11773;52.570;13.052;2022-09-04T06:51:06;101854.00;;;22.60
23208;BMP180;11773;52.570;13.052;2022-09-04T06:57:06;101863.00;;;23.00
23208;BMP180;11773;52.570;13.052;2022-09-04T07:00:04;101887.00;;;23.20
23208;BMP180;11773;52.570;13.052;2022-09-04T07:06:25;101877.00;;;23.70
23208;BMP180;11773;52.570;13.052;2022-09-04T07:09:04;101869.00;;;23.90
23208;BMP180;11773;52.570;13.052;2022-09-04T07:11:43;101874.00;;;24.10
23208;BMP180;11773;52.570;13.052;2022-09-04T07:14:43;101870.00;;;24.20
23208;BMP180;11773;52.570;13.052;2022-09-04T07:17:35;101889.00;;;24.40
23208;BMP180;11773;52.570;13.052;2022-09-04T07:23:26;101873.00;;;24.70
23208;BMP180;11773;52.570;13.052;2022-09-04T07:29:32;101883.00;;;24.90
23208;BMP180;11773;52.570;13.052;2022-09-04T07:32:22;101881.00;;;25.00
23208;BMP180;11773;52.570;13.052;2022-09-04T07:35:20;101887.00;;;25.10
23208;BMP180;11773;52.570;13.052;2022-09-04T07:38:07;101907.00;;;25.30
23208;BMP180;11773;52.570;13.052;2022-09-04T07:41:01;101894.00;;;25.30
23208;BMP180;11773;52.570;13.052;2022-09-04T07:46:37;101902.00;;;25.40
23208;BMP180;11773;52.570;13.052;2022-09-04T07:49:36;101917.00;;;25.40
23208;BMP180;11773;52.570;13.052;2022-09-04T07:52:52;101921.00;;;25.50
23208;BMP180;11773;52.570;13.052;2022-09-04T07:55:59;101921.00;;;25.50
23208;BMP180;11773;52.570;13.052;2022-09-04T08:01:32;101930.00;;;25.50
23208;BMP180;11773;52.570;13.052;2022-09-04T08:07:14;101923.00;;;25.60
23208;BMP180;11773;52.570;13.052;2022-09-04T08:10:03;101927.00;;;25.70
23208;BMP180;11773;52.570;13.052;2022-09-04T08:12:55;101936.00;;;25.80
23208;BMP180;11773;52.570;13.052;2022-09-04T08:15:49;101923.00;;;25.80
23208;BMP180;11773;52.570;13.052;2022-09-04T08:21:42;101930.00;;;25.90
23208;BMP180;11773;52.570;13.052;2022-09-04T08:24:59;101925.00;;;25.80
23208;BMP180;11773;52.570;13.052;2022-09-04T08:30:33;101924.00;;;25.80
23208;BMP180;11773;52.570;13.052;2022-09-04T08:33:22;101938.00;;;25.80
23208;BMP180;11773;52.570;13.052;2022-09-04T08:36:00;101928.00;;;25.80
23208;BMP180;11773;52.570;13.052;2022-09-04T08:39:20;101925.00;;;25.90
23208;BMP180;11773;52.570;13.052;2022-09-04T08:45:05;101936.00;;;25.90
23208;BMP180;11773;52.570;13.052;2022-09-04T08:48:07;101931.00;;;25.90
23208;BMP180;11773;52.570;13.052;2022-09-04T08:54:18;101928.00;;;25.80
23208;BMP180;11773;52.570;13.052;2022-09-04T09:15:51;101946.00;;;25.90
23208;BMP180;11773;52.570;13.052;2022-09-04T09:18:59;101950.00;;;25.90
23208;BMP180;11773;52.570;13.052;2022-09-04T09:21:54;101945.00;;;26.00
23208;BMP180;11773;52.570;13.052;2022-09-04T09:30:06;101933.00;;;26.20
23208;BMP180;11773;52.570;13.052;2022-09-04T09:50:59;101933.00;;;26.60
23208;BMP180;11773;52.570;13.052;2022-09-04T09:54:06;101940.00;;;26.60
23208;BMP180;11773;52.570;13.052;2022-09-04T10:00:13;101928.00;;;26.80
23208;BMP180;11773;52.570;13.052;2022-09-04T10:03:17;101933.00;;;26.80
23208;BMP180;11773;52.570;13.052;2022-09-04T10:12:21;101937.00;;;27.00
23208;BMP180;11773;52.570;13.052;2022-09-04T10:15:14;101945.00;;;27.10
23208;BMP180;11773;52.570;13.052;2022-09-04T10:27:19;101951.00;;;27.20
23208;BMP180;11773;52.570;13.052;2022-09-04T10:33:00;101941.00;;;27.30
23208;BMP180;11773;52.570;13.052;2022-09-04T10:38:40;101942.00;;;27.40
23208;BMP180;11773;52.570;13.052;2022-09-04T10:41:39;101954.00;;;27.50
23208;BMP180;11773;52.570;13.052;2022-09-04T10:44:35;101954.00;;;27.50
23208;BMP180;11773;52.570;13.052;2022-09-04T10:47:26;101967.00;;;27.60
23208;BMP180;11773;52.570;13.052;2022-09-04T10:50:04;101953.00;;;27.60
23208;BMP180;11773;52.570;13.052;2022-09-04T10:53:09;101951.00;;;27.60
23208;BMP180;11773;52.570;13.052;2022-09-04T10:56:00;101948.00;;;27.70
23208;BMP180;11773;52.570;13.052;2022-09-04T11:01:40;101946.00;;;27.70
23208;BMP180;11773;52.570;13.052;2022-09-04T11:04:26;101952.00;;;27.70
23208;BMP180;11773;52.570;13.052;2022-09-04T11:07:30;101948.00;;;27.80
23208;BMP180;11773;52.570;13.052;2022-09-04T11:12:58;101960.00;;;27.80
23208;BMP180;11773;52.570;13.052;2022-09-04T11:18:35;101952.00;;;27.90
23208;BMP180;11773;52.570;13.052;2022-09-04T11:30:15;101944.00;;;28.00
23208;BMP180;11773;52.570;13.052;2022-09-04T11:32:55;101951.00;;;28.00
23208;BMP180;11773;52.570;13.052;2022-09-04T11:38:30;101939.00;;;28.10
23208;BMP180;11773;52.570;13.052;2022-09-04T11:41:41;101932.00;;;28.20
23208;BMP180;11773;52.570;13.052;2022-09-04T11:50:19;101927.00;;;28.20
23208;BMP180;11773;52.570;13.052;2022-09-04T11:56:20;101927.00;;;28.20
23208;BMP180;11773;52.570;13.052;2022-09-04T11:59:06;101922.00;;;28.30
23208;BMP180;11773;52.570;13.052;2022-09-04T12:05:31;101916.00;;;28.30
23208;BMP180;11773;52.570;13.052;2022-09-04T12:14:03;101916.00;;;28.40
23208;BMP180;11773;52.570;13.052;2022-09-04T12:17:02;101918.00;;;28.40
23208;BMP180;11773;52.570;13.052;2022-09-04T12:19:57;101905.00;;;28.40
23208;BMP180;11773;52.570;13.052;2022-09-04T12:22:54;101909.00;;;28.50
23208;BMP180;11773;52.570;13.052;2022-09-04T12:25:45;101908.00;;;28.50
23208;BMP180;11773;52.570;13.052;2022-09-04T12:31:48;101910.00;;;28.50
23208;BMP180;11773;52.570;13.052;2022-09-04T12:34:44;101908.00;;;28.60
23208;BMP180;11773;52.570;13.052;2022-09-04T12:37:35;101909.00;;;28.60
23208;BMP180;11773;52.570;13.052;2022-09-04T12:40:33;101907.00;;;28.60
23208;BMP180;11773;52.570;13.052;2022-09-04T12:46:12;101916.00;;;28.70
23208;BMP180;11773;52.570;13.052;2022-09-04T12:52:15;101903.00;;;28.70
23208;BMP180;11773;52.570;13.052;2022-09-04T12:55:08;101914.00;;;28.80
23208;BMP180;11773;52.570;13.052;2022-09-04T13:04:58;101917.00;;;28.80
23208;BMP180;11773;52.570;13.052;2022-09-04T13:07:50;101921.00;;;28.70
23208;BMP180;11773;52.570;13.052;2022-09-04T13:10:42;101913.00;;;28.70
23208;BMP180;11773;52.570;13.052;2022-09-04T13:13:37;101911.00;;;28.80
23208;BMP180;11773;52.570;13.052;2022-09-04T13:19:19;101919.00;;;28.80
23208;BMP180;11773;52.570;13.052;2022-09-04T13:22:13;101921.00;;;28.80
23208;BMP180;11773;52.570;13.052;2022-09-04T13:25:14;101912.00;;;28.80
23208;BMP180;11773;52.570;13.052;2022-09-04T13:34:08;101927.00;;;28.90
23208;BMP180;11773;52.570;13.052;2022-09-04T13:39:59;101921.00;;;29.00
23208;BMP180;11773;52.570;13.052;2022-09-04T13:45:31;101930.00;;;29.00
23208;BMP180;11773;52.570;13.052;2022-09-04T13:51:15;101936.00;;;29.00
23208;BMP180;11773;52.570;13.052;2022-09-04T13:53:55;101930.00;;;29.10
23208;BMP180;11773;52.570;13.052;2022-09-04T13:57:12;101927.00;;;29.10
23208;BMP180;11773;52.570;13.052;2022-09-04T13:59:45;101928.00;;;29.10
23208;BMP180;11773;52.570;13.052;2022-09-04T14:02:20;101944.00;;;29.10
23208;BMP180;11773;52.570;13.052;2022-09-04T14:05:07;101927.00;;;29.20
23208;BMP180;11773;52.570;13.052;2022-09-04T14:07:45;101937.00;;;29.20
23208;BMP180;11773;52.570;13.052;2022-09-04T14:10:21;101931.00;;;29.30
23208;BMP180;11773;52.570;13.052;2022-09-04T14:13:20;101935.00;;;29.30
23208;BMP180;11773;52.570;13.052;2022-09-04T14:16:03;101939.00;;;29.30
23208;BMP180;11773;52.570;13.052;2022-09-04T14:30:22;101940.00;;;29.30
23208;BMP180;11773;52.570;13.052;2022-09-04T14:33:34;101936.00;;;29.30
23208;BMP180;11773;52.570;13.052;2022-09-04T14:36:19;101935.00;;;29.30
23208;BMP180;11773;52.570;13.052;2022-09-04T14:39:18;101941.00;;;29.30
23208;BMP180;11773;52.570;13.052;2022-09-04T14:42:16;101925.00;;;29.30
23208;BMP180;11773;52.570;13.052;2022-09-04T14:45:00;101934.00;;;29.40
23208;BMP180;11773;52.570;13.052;2022-09-04T14:50:13;101931.00;;;29.40
23208;BMP180;11773;52.570;13.052;2022-09-04T14:52:51;101937.00;;;29.40
23208;BMP180;11773;52.570;13.052;2022-09-04T14:55:30;101938.00;;;29.40
23208;BMP180;11773;52.570;13.052;2022-09-04T14:58:26;101936.00;;;29.40
23208;BMP180;11773;52.570;13.052;2022-09-04T15:00:59;101938.00;;;29.40
23208;BMP180;11773;52.570;13.052;2022-09-04T15:06:18;101935.00;;;29.40
23208;BMP180;11773;52.570;13.052;2022-09-04T15:08:45;101928.00;;;29.40
23208;BMP180;11773;52.570;13.052;2022-09-04T15:11:32;101940.00;;;29.40
23208;BMP180;11773;52.570;13.052;2022-09-04T15:14:29;101934.00;;;29.40
23208;BMP180;11773;52.570;13.052;2022-09-04T15:17:09;101919.00;;;29.30
23208;BMP180;11773;52.570;13.052;2022-09-04T15:20:02;101921.00;;;29.30
23208;BMP180;11773;52.570;13.052;2022-09-04T15:22:39;101939.00;;;29.30
23208;BMP180;11773;52.570;13.052;2022-09-04T15:27:57;101936.00;;;29.30
23208;BMP180;11773;52.570;13.052;2022-09-04T15:30:34;101939.00;;;29.30
23208;BMP180;11773;52.570;13.052;2022-09-04T15:33:08;101946.00;;;29.30
23208;BMP180;11773;52.570;13.052;2022-09-04T15:35:40;101958.00;;;29.30
23208;BMP180;11773;52.570;13.052;2022-09-04T15:38:20;101951.00;;;29.20
23208;BMP180;11773;52.570;13.052;2022-09-04T15:43:46;101956.00;;;29.20
23208;BMP180;11773;52.570;13.052;2022-09-04T15:46:41;101953.00;;;29.20
23208;BMP180;11773;52.570;13.052;2022-09-04T15:49:50;101960.00;;;29.10
23208;BMP180;11773;52.570;13.052;2022-09-04T15:55:33;101962.00;;;29.00
23208;BMP180;11773;52.570;13.052;2022-09-04T16:06:44;101958.00;;;28.90
23208;BMP180;11773;52.570;13.052;2022-09-04T16:09:36;101953.00;;;28.90
23208;BMP180;11773;52.570;13.052;2022-09-04T16:12:19;101955.00;;;28.90
23208;BMP180;11773;52.570;13.052;2022-09-04T16:14:48;101960.00;;;28.90
23208;BMP180;11773;52.570;13.052;2022-09-04T16:17:31;101961.00;;;28.90
23208;BMP180;11773;52.570;13.052;2022-09-04T16:20:25;101972.00;;;28.80
23208;BMP180;11773;52.570;13.052;2022-09-04T16:23:00;101963.00;;;28.80
23208;BMP180;11773;52.570;13.052;2022-09-04T16:25:45;101965.00;;;28.80
23208;BMP180;11773;52.570;13.052;2022-09-04T16:28:38;101968.00;;;28.80
23208;BMP180;11773;52.570;13.052;2022-09-04T16:31:13;101967.00;;;28.70
23208;BMP180;11773;52.570;13.052;2022-09-04T16:33:52;101964.00;;;28.70
23208;BMP180;11773;52.570;13.052;2022-09-04T16:36:46;101979.00;;;28.70
23208;BMP180;11773;52.570;13.052;2022-09-04T16:39:42;101989.00;;;28.70
23208;BMP180;11773;52.570;13.052;2022-09-04T16:42:18;101971.00;;;28.60
23208;BMP180;11773;52.570;13.052;2022-09-04T16:45:02;101976.00;;;28.60
23208;BMP180;11773;52.570;13.052;2022-09-04T16:50:45;101998.00;;;28.60
23208;BMP180;11773;52.570;13.052;2022-09-04T16:53:32;101994.00;;;28.50
23208;BMP180;11773;52.570;13.052;2022-09-04T16:56:19;102001.00;;;28.50
23208;BMP180;11773;52.570;13.052;2022-09-04T16:58:54;101988.00;;;28.40
23208;BMP180;11773;52.570;13.052;2022-09-04T17:01:40;101995.00;;;28.40
23208;BMP180;11773;52.570;13.052;2022-09-04T17:04:19;102007.00;;;28.40
23208;BMP180;11773;52.570;13.052;2022-09-04T17:07:01;102011.00;;;28.40
23208;BMP180;11773;52.570;13.052;2022-09-04T17:09:44;102008.00;;;28.40
23208;BMP180;11773;52.570;13.052;2022-09-04T17:15:30;102000.00;;;28.30
23208;BMP180;11773;52.570;13.052;2022-09-04T17:18:06;101998.00;;;28.30
23208;BMP180;11773;52.570;13.052;2022-09-04T17:23:33;101995.00;;;28.30
23208;BMP180;11773;52.570;13.052;2022-09-04T17:26:12;102010.00;;;28.30
23208;BMP180;11773;52.570;13.052;2022-09-04T17:29:15;102007.00;;;28.40
23208;BMP180;11773;52.570;13.052;2022-09-04T17:31:57;102001.00;;;28.30
23208;BMP180;11773;52.570;13.052;2022-09-04T17:34:47;102005.00;;;28.30
23208;BMP180;11773;52.570;13.052;2022-09-04T17:38:03;102022.00;;;28.30
23208;BMP180;11773;52.570;13.052;2022-09-04T17:43:12;102019.00;;;28.30
23208;BMP180;11773;52.570;13.052;2022-09-04T17:48:31;102030.00;;;28.20
23208;BMP180;11773;52.570;13.052;2022-09-04T17:51:04;102023.00;;;28.20
23208;BMP180;11773;52.570;13.052;2022-09-04T17:53:45;102033.00;;;28.20
23208;BMP180;11773;52.570;13.052;2022-09-04T17:56:33;102035.00;;;28.10
23208;BMP180;11773;52.570;13.052;2022-09-04T17:59:08;102041.00;;;28.10
23208;BMP180;11773;52.570;13.052;2022-09-04T18:02:12;102037.00;;;28.00
23208;BMP180;11773;52.570;13.052;2022-09-04T18:05:17;102052.00;;;27.90
23208;BMP180;11773;52.570;13.052;2022-09-04T18:10:59;102045.00;;;27.80
23208;BMP180;11773;52.570;13.052;2022-09-04T18:13:57;102066.00;;;27.70
23208;BMP180;11773;52.570;13.052;2022-09-04T18:16:47;102054.00;;;27.70
23208;BMP180;11773;52.570;13.052;2022-09-04T18:19:27;102066.00;;;27.60
23208;BMP180;11773;52.570;13.052;2022-09-04T18:22:04;102068.00;;;27.60
23208;BMP180;11773;52.570;13.052;2022-09-04T18:24:52;102064.00;;;27.60
23208;BMP180;11773;52.570;13.052;2022-09-04T18:30:23;102075.00;;;27.50
23208;BMP180;11773;52.570;13.052;2022-09-04T18:33:14;102069.00;;;27.40
23208;BMP180;11773;52.570;13.052;2022-09-04T18:36:10;102066.00;;;27.40
23208;BMP180;11773;52.570;13.052;2022-09-04T18:39:04;102071.00;;;27.30
23208;BMP180;11773;52.570;13.052;2022-09-04T18:41:48;102078.00;;;27.30
23208;BMP180;11773;52.570;13.052;2022-09-04T18:44:21;102090.00;;;27.30
23208;BMP180;11773;52.570;13.052;2022-09-04T18:47:21;102100.00;;;27.20
23208;BMP180;11773;52.570;13.052;2022-09-04T18:49:59;102094.00;;;27.20
23208;BMP180;11773;52.570;13.052;2022-09-04T18:52:58;102090.00;;;27.10
23208;BMP180;11773;52.570;13.052;2022-09-04T18:59:18;102098.00;;;27.00
23208;BMP180;11773;52.570;13.052;2022-09-04T19:01:45;102096.00;;;26.90
23208;BMP180;11773;52.570;13.052;2022-09-04T19:07:31;102090.00;;;26.70
23208;BMP180;11773;52.570;13.052;2022-09-04T19:10:24;102107.00;;;26.70
23208;BMP180;11773;52.570;13.052;2022-09-04T19:16:08;102099.00;;;26.60
23208;BMP180;11773;52.570;13.052;2022-09-04T19:19:04;102094.00;;;26.50
23208;BMP180;11773;52.570;13.052;2022-09-04T19:21:52;102107.00;;;26.40
23208;BMP180;11773;52.570;13.052;2022-09-04T19:30:23;102105.00;;;26.30
23208;BMP180;11773;52.570;13.052;2022-09-04T19:33:09;102103.00;;;26.20
23208;BMP180;11773;52.570;13.052;2022-09-04T19:35:55;102110.00;;;26.20
23208;BMP180;11773;52.570;13.052;2022-09-04T19:39:03;102091.00;;;26.20
23208;BMP180;11773;52.570;13.052;2022-09-04T19:41:27;102094.00;;;26.10
23208;BMP180;11773;52.570;13.052;2022-09-04T19:44:22;102100.00;;;26.10
23208;BMP180;11773;52.570;13.052;2022-09-04T19:46:56;102093.00;;;26.00
23208;BMP180;11773;52.570;13.052;2022-09-04T19:49:38;102096.00;;;26.00
23208;BMP180;11773;52.570;13.052;2022-09-04T19:52:22;102100.00;;;25.90
23208;BMP180;11773;52.570;13.052;2022-09-04T19:55:44;102110.00;;;25.90
23208;BMP180;11773;52.570;13.052;2022-09-04T19:58:38;102101.00;;;25.80
23208;BMP180;11773;52.570;13.052;2022-09-04T20:01:17;102105.00;;;25.80
23208;BMP180;11773;52.570;13.052;2022-09-04T20:03:57;102101.00;;;25.70
23208;BMP180;11773;52.570;13.052;2022-09-04T20:06:34;102103.00;;;25.70
23208;BMP180;11773;52.570;13.052;2022-09-04T20:14:59;102115.00;;;25.60
23208;BMP180;11773;52.570;13.052;2022-09-04T20:17:51;102107.00;;;25.50
23208;BMP180;11773;52.570;13.052;2022-09-04T20:20:25;102111.00;;;25.50
23208;BMP180;11773;52.570;13.052;2022-09-04T20:23:10;102119.00;;;25.50
23208;BMP180;11773;52.570;13.052;2022-09-04T20:28:51;102114.00;;;25.40
23208;BMP180;11773;52.570;13.052;2022-09-04T20:31:28;102129.00;;;25.40
23208;BMP180;11773;52.570;13.052;2022-09-04T20:34:10;102125.00;;;25.30
23208;BMP180;11773;52.570;13.052;2022-09-04T20:36:44;102129.00;;;25.30
23208;BMP180;11773;52.570;13.052;2022-09-04T20:39:25;102117.00;;;25.20
23208;BMP180;11773;52.570;13.052;2022-09-04T20:42:00;102114.00;;;25.20
23208;BMP180;11773;52.570;13.052;2022-09-04T20:44:41;102119.00;;;25.20
23208;BMP180;11773;52.570;13.052;2022-09-04T20:47:29;102122.00;;;25.20
23208;BMP180;11773;52.570;13.052;2022-09-04T20:50:30;102137.00;;;25.10
23208;BMP180;11773;52.570;13.052;2022-09-04T20:54:00;102130.00;;;25.10
23208;BMP180;11773;52.570;13.052;2022-09-04T21:02:53;102140.00;;;24.90
23208;BMP180;11773;52.570;13.052;2022-09-04T21:05:51;102127.00;;;24.80
23208;BMP180;11773;52.570;13.052;2022-09-04T21:09:04;102131.00;;;24.70
23208;BMP180;11773;52.570;13.052;2022-09-04T21:11:49;102132.00;;;24.60
23208;BMP180;11773;52.570;13.052;2022-09-04T21:14:34;102143.00;;;24.60
23208;BMP180;11773;52.570;13.052;2022-09-04T21:29:17;102148.00;;;24.40
23208;BMP180;11773;52.570;13.052;2022-09-04T21:32:28;102159.00;;;24.30
23208;BMP180;11773;52.570;13.052;2022-09-04T21:35:19;102160.00;;;24.30
23208;BMP180;11773;52.570;13.052;2022-09-04T21:41:38;102166.00;;;24.20
23208;BMP180;11773;52.570;13.052;2022-09-04T21:44:27;102168.00;;;24.10
23208;BMP180;11773;52.570;13.052;2022-09-04T21:50:42;102162.00;;;24.00
23208;BMP180;11773;52.570;13.052;2022-09-04T21:56:42;102165.00;;;24.00
23208;BMP180;11773;52.570;13.052;2022-09-04T21:59:39;102172.00;;;23.90
23208;BMP180;11773;52.570;13.052;2022-09-04T22:02:46;102163.00;;;23.80
23208;BMP180;11773;52.570;13.052;2022-09-04T22:14:19;102170.00;;;23.70
23208;BMP180;11773;52.570;13.052;2022-09-04T22:17:03;102180.00;;;23.60
23208;BMP180;11773;52.570;13.052;2022-09-04T22:19:46;102171.00;;;23.60
23208;BMP180;11773;52.570;13.052;2022-09-04T22:25:26;102179.00;;;23.50
23208;BMP180;11773;52.570;13.052;2022-09-04T22:31:26;102180.00;;;23.40
23208;BMP180;11773;52.570;13.052;2022-09-04T22:36:35;102171.00;;;23.40